createdAt,value
2018-03-29T00:01:34.015Z,96762.52
2018-03-29T00:04:03.022Z,96767.99
2018-03-29T00:06:31.279Z,96775.55
2018-03-29T00:08:59.521Z,96787.75
2018-03-29T00:11:27.764Z,96764.28
2018-03-29T00:13:55.998Z,96772.30
2018-03-29T00:16:24.234Z,96769.81
2018-03-29T00:18:52.470Z,96758.95
2018-03-29T00:21:21.482Z,96774.03
2018-03-29T00:23:49.734Z,96790.34
2018-03-29T00:26:18.738Z,96780.74
2018-03-29T00:28:46.980Z,96788.33
2018-03-29T00:31:15.226Z,96790.41
2018-03-29T00:33:43.465Z,96790.83
2018-03-29T00:36:11.713Z,96802.59
2018-03-29T00:38:39.946Z,96802.57
2018-03-29T00:41:08.190Z,96813.48
2018-03-29T00:43:36.433Z,96817.28
2018-03-29T00:46:04.678Z,96831.97
2018-03-29T00:48:32.916Z,96839.92
2018-03-29T00:51:01.922Z,96829.05
2018-03-29T00:53:45.162Z,96837.83
2018-03-29T00:56:13.401Z,96846.27
2018-03-29T00:58:42.419Z,96853.81
2018-03-29T01:01:10.657Z,96860.09
2018-03-29T01:03:39.658Z,96872.65
2018-03-29T01:06:08.677Z,96869.33
2018-03-29T01:08:36.918Z,96879.39
2018-03-29T01:11:05.922Z,96896.55
2018-03-29T01:13:34.936Z,96894.89
2018-03-29T01:16:03.179Z,96921.26
2018-03-29T01:18:31.417Z,96935.49
2018-03-29T01:20:59.654Z,96943.43
2018-03-29T01:23:27.905Z,96932.06
2018-03-29T01:25:56.905Z,96962.09
2018-03-29T01:28:25.921Z,96969.11
2018-03-29T01:30:54.169Z,96963.23
2018-03-29T01:33:23.182Z,96980.27
2018-03-29T01:35:51.419Z,96972.30
2018-03-29T01:38:19.842Z,96973.13
2018-03-29T01:40:48.096Z,96986.49
2018-03-29T01:43:16.330Z,96994.02
2018-03-29T01:45:44.569Z,96993.97
2018-03-29T01:48:12.809Z,97001.52
2018-03-29T01:50:41.831Z,97006.08
2018-03-29T01:53:10.111Z,96999.00
2018-03-29T01:55:38.314Z,97006.08
2018-03-29T01:58:06.553Z,97010.27
2018-03-29T02:00:35.557Z,97009.06
2018-03-29T02:03:03.804Z,97014.55
2018-03-29T02:05:32.817Z,97023.75
2018-03-29T02:08:01.061Z,97021.66
2018-03-29T02:10:30.078Z,97029.17
2018-03-29T02:12:59.073Z,97028.78
2018-03-29T02:15:27.320Z,97044.26
2018-03-29T02:17:55.558Z,97041.74
2018-03-29T02:20:23.800Z,97051.80
2018-03-29T02:22:52.053Z,97038.84
2018-03-29T02:25:21.066Z,97053.50
2018-03-29T02:27:49.364Z,97054.36
2018-03-29T02:30:18.429Z,97051.45
2018-03-29T02:32:47.438Z,97058.98
2018-03-29T02:35:15.687Z,97061.06
2018-03-29T02:37:44.702Z,97064.00
2018-03-29T02:40:13.697Z,97061.44
2018-03-29T02:42:41.934Z,97066.50
2018-03-29T02:45:10.265Z,97068.58
2018-03-29T02:47:38.507Z,97063.12
2018-03-29T02:50:07.506Z,97056.47
2018-03-29T02:52:35.755Z,97067.78
2018-03-29T02:55:03.995Z,97058.59
2018-03-29T02:57:32.234Z,97062.31
2018-03-29T03:00:01.241Z,97065.64
2018-03-29T03:02:29.472Z,97068.61
2018-03-29T03:04:57.713Z,97069.84
2018-03-29T03:07:25.962Z,97075.67
2018-03-29T03:09:54.204Z,97070.70
2018-03-29T03:12:22.452Z,97078.23
2018-03-29T03:14:50.698Z,97073.24
2018-03-29T03:17:18.930Z,97084.94
2018-03-29T03:19:47.169Z,97080.34
2018-03-29T03:22:15.401Z,97084.94
2018-03-29T03:24:44.408Z,97082.05
2018-03-29T03:27:12.644Z,97084.58
2018-03-29T03:29:40.889Z,97086.25
2018-03-29T03:32:09.121Z,97089.59
2018-03-29T03:34:38.129Z,97090.02
2018-03-29T03:37:06.407Z,97093.78
2018-03-29T03:39:34.610Z,97101.64
2018-03-29T03:42:02.845Z,97099.61
2018-03-29T03:44:31.093Z,97102.56
2018-03-29T03:46:59.320Z,97105.92
2018-03-29T03:49:27.560Z,97108.45
2018-03-29T03:51:56.570Z,97113.42
2018-03-29T03:54:24.805Z,97115.06
2018-03-29T03:56:53.148Z,97116.77
2018-03-29T03:59:21.385Z,97120.94
2018-03-29T04:01:50.425Z,97132.63
2018-03-29T04:04:18.656Z,97128.92
2018-03-29T04:06:46.896Z,97134.32
2018-03-29T04:09:15.141Z,97133.91
2018-03-29T04:11:43.388Z,97145.19
2018-03-29T04:14:11.630Z,97135.59
2018-03-29T04:16:39.869Z,97139.78
2018-03-29T04:19:08.109Z,97141.44
2018-03-29T04:21:36.361Z,97155.19
2018-03-29T04:24:05.373Z,97151.45
2018-03-29T04:26:34.386Z,97158.16
2018-03-29T04:29:02.622Z,97158.55
2018-03-29T04:31:30.870Z,97156.86
2018-03-29T04:33:59.114Z,97151.47
2018-03-29T04:36:27.349Z,97151.45
2018-03-29T04:38:56.361Z,97157.74
2018-03-29T04:41:24.663Z,97149.36
2018-03-29T04:43:52.912Z,97154.76
2018-03-29T04:46:21.909Z,97158.55
2018-03-29T04:48:50.157Z,97155.66
2018-03-29T04:51:18.393Z,97162.40
2018-03-29T04:53:46.641Z,97164.82
2018-03-29T04:56:14.879Z,97167.38
2018-03-29T04:58:43.117Z,97160.25
2018-03-29T05:01:11.357Z,97174.00
2018-03-29T05:03:40.361Z,97177.35
2018-03-29T05:06:08.601Z,97175.70
2018-03-29T05:08:36.848Z,97179.83
2018-03-29T05:11:05.095Z,97179.04
2018-03-29T05:13:33.337Z,97181.94
2018-03-29T05:16:02.340Z,97173.19
2018-03-29T05:18:31.350Z,97182.81
2018-03-29T05:20:59.590Z,97185.33
2018-03-29T05:23:27.825Z,97186.54
2018-03-29T05:26:01.553Z,97194.45
2018-03-29T05:28:29.789Z,97196.98
2018-03-29T05:30:58.034Z,97194.92
2018-03-29T05:33:27.041Z,97198.31
2018-03-29T05:35:55.284Z,97201.20
2018-03-29T05:38:23.513Z,97201.21
2018-03-29T05:40:51.796Z,97197.04
2018-03-29T05:43:19.992Z,97201.59
2018-03-29T05:45:48.234Z,97208.67
2018-03-29T05:48:16.478Z,97205.75
2018-03-29T05:50:45.494Z,97208.69
2018-03-29T05:53:13.731Z,97211.30
2018-03-29T05:55:42.747Z,97215.02
2018-03-29T05:58:10.977Z,97222.89
2018-03-29T06:00:39.225Z,97216.20
2018-03-29T06:03:07.527Z,97217.47
2018-03-29T06:05:36.471Z,97211.17
2018-03-29T06:08:04.711Z,97222.13
2018-03-29T06:10:32.949Z,97225.46
2018-03-29T06:13:01.190Z,97225.09
2018-03-29T06:15:33.348Z,97224.28
2018-03-29T06:18:02.350Z,97228.89
2018-03-29T06:20:30.599Z,97231.33
2018-03-29T06:22:58.838Z,97226.02
2018-03-29T06:25:27.085Z,97227.68
2018-03-29T06:27:55.330Z,97230.62
2018-03-29T06:30:24.333Z,97233.53
2018-03-29T06:32:53.346Z,97239.38
2018-03-29T06:35:21.581Z,97241.84
2018-03-29T06:37:49.826Z,97247.33
2018-03-29T06:40:18.062Z,97249.92
2018-03-29T06:42:46.313Z,97252.48
2018-03-29T06:45:14.554Z,97255.80
2018-03-29T06:47:42.797Z,97261.65
2018-03-29T06:50:11.033Z,97269.59
2018-03-29T06:52:39.283Z,97267.93
2018-03-29T06:55:07.522Z,97266.69
2018-03-29T06:57:35.767Z,97264.63
2018-03-29T07:00:04.778Z,97266.33
2018-03-29T07:02:33.791Z,97262.57
2018-03-29T07:05:02.030Z,97260.96
2018-03-29T07:07:30.270Z,97259.24
2018-03-29T07:09:58.510Z,97271.39
2018-03-29T07:12:26.760Z,97273.92
2018-03-29T07:14:55.781Z,97277.73
2018-03-29T07:17:24.014Z,97274.88
2018-03-29T07:19:52.254Z,97279.03
2018-03-29T07:22:20.499Z,97278.98
2018-03-29T07:24:48.733Z,97284.00
2018-03-29T07:27:16.989Z,97281.94
2018-03-29T07:29:45.273Z,97275.70
2018-03-29T07:32:13.461Z,97280.80
2018-03-29T07:34:41.701Z,97279.48
2018-03-29T07:37:09.942Z,97272.04
2018-03-29T07:39:38.955Z,97275.75
2018-03-29T07:42:07.201Z,97283.73
2018-03-29T07:44:36.206Z,97279.98
2018-03-29T07:47:04.483Z,97279.16
2018-03-29T07:49:32.721Z,97290.44
2018-03-29T07:52:02.474Z,97288.33
2018-03-29T07:54:30.717Z,97295.05
2018-03-29T07:56:58.950Z,97295.94
2018-03-29T07:59:27.213Z,97291.38
2018-03-29T08:01:55.445Z,97293.03
2018-03-29T08:04:24.450Z,97292.60
2018-03-29T08:06:52.693Z,97285.91
2018-03-29T08:09:20.941Z,97297.66
2018-03-29T08:11:49.176Z,97296.84
2018-03-29T08:14:18.189Z,97302.36
2018-03-29T08:16:46.447Z,97309.41
2018-03-29T08:19:14.733Z,97305.67
2018-03-29T08:21:43.111Z,97310.61
2018-03-29T08:24:12.105Z,97308.66
2018-03-29T08:26:40.342Z,97295.70
2018-03-29T08:29:08.590Z,97303.70
2018-03-29T08:31:36.833Z,97308.20
2018-03-29T08:34:05.086Z,97300.29
2018-03-29T08:36:34.087Z,97301.16
2018-03-29T08:39:03.093Z,97295.81
2018-03-29T08:41:31.345Z,97298.75
2018-03-29T08:44:00.349Z,97290.27
2018-03-29T08:46:29.353Z,97291.58
2018-03-29T08:48:57.601Z,97297.14
2018-03-29T08:51:26.605Z,97284.44
2018-03-29T08:53:55.612Z,97286.16
2018-03-29T08:56:23.852Z,97280.37
2018-03-29T08:58:52.088Z,97268.53
2018-03-29T09:01:20.343Z,97258.45
2018-03-29T09:03:48.573Z,97263.89
2018-03-29T09:06:16.816Z,97260.95
2018-03-29T09:08:45.053Z,97264.42
2018-03-29T09:11:13.306Z,97269.09
2018-03-29T09:13:41.545Z,97277.86
2018-03-29T09:16:09.792Z,97292.12
2018-03-29T09:18:38.043Z,97294.22
2018-03-29T09:21:07.073Z,97302.65
2018-03-29T09:23:35.291Z,97295.08
2018-03-29T09:26:04.329Z,97294.64
2018-03-29T09:28:32.565Z,97316.07
2018-03-29T09:31:00.802Z,97309.75
2018-03-29T09:33:29.042Z,97305.13
2018-03-29T09:35:57.289Z,97303.89
2018-03-29T09:38:25.533Z,97301.78
2018-03-29T09:40:53.774Z,97309.75
2018-03-29T09:43:22.013Z,97308.50
2018-03-29T09:45:50.253Z,97315.66
2018-03-29T09:48:18.504Z,97314.81
2018-03-29T09:50:46.742Z,97321.50
2018-03-29T09:53:14.985Z,97322.73
2018-03-29T09:55:43.220Z,97324.44
2018-03-29T09:58:11.473Z,97325.28
2018-03-29T10:00:40.486Z,97332.42
2018-03-29T10:03:09.490Z,97334.09
2018-03-29T10:05:38.625Z,97329.51
2018-03-29T10:08:06.890Z,97329.48
2018-03-29T10:10:35.122Z,97325.27
2018-03-29T10:13:04.137Z,97325.71
2018-03-29T10:15:32.371Z,97323.48
2018-03-29T10:18:00.617Z,97319.80
2018-03-29T10:20:28.861Z,97321.92
2018-03-29T10:22:57.110Z,97332.00
2018-03-29T10:25:26.114Z,97327.36
2018-03-29T10:27:54.370Z,97331.98
2018-03-29T10:30:23.374Z,97351.73
2018-03-29T10:32:52.381Z,97325.30
2018-03-29T10:35:20.625Z,97327.38
2018-03-29T10:37:48.870Z,97330.66
2018-03-29T10:40:17.109Z,97326.52
2018-03-29T10:42:45.353Z,97328.14
2018-03-29T10:45:13.610Z,97329.45
2018-03-29T10:47:41.850Z,97334.83
2018-03-29T10:50:10.097Z,97319.77
2018-03-29T10:52:39.101Z,97328.55
2018-03-29T10:55:07.352Z,97315.55
2018-03-29T10:57:36.356Z,97329.45
2018-03-29T11:00:05.373Z,97331.11
2018-03-29T11:02:33.609Z,97312.59
2018-03-29T11:05:01.851Z,97311.03
2018-03-29T11:07:30.095Z,97314.12
2018-03-29T11:09:58.341Z,97301.88
2018-03-29T11:12:27.344Z,97299.12
2018-03-29T11:14:56.345Z,97293.66
2018-03-29T11:17:24.583Z,97298.39
2018-03-29T11:19:52.833Z,97293.05
2018-03-29T11:22:21.065Z,97294.19
2018-03-29T11:24:50.065Z,97294.72
2018-03-29T11:27:18.313Z,97276.63
2018-03-29T11:29:46.550Z,97273.37
2018-03-29T11:32:14.788Z,97295.35
2018-03-29T11:34:43.025Z,97288.14
2018-03-29T11:37:11.275Z,97283.94
2018-03-29T11:39:39.514Z,97296.34
2018-03-29T11:42:07.758Z,97304.42
2018-03-29T11:44:35.993Z,97283.27
2018-03-29T11:47:04.237Z,97294.71
2018-03-29T11:49:32.474Z,97292.34
2018-03-29T11:52:00.721Z,97291.14
2018-03-29T11:54:28.957Z,97293.03
2018-03-29T11:56:57.973Z,97294.66
2018-03-29T11:59:26.219Z,97278.11
2018-03-29T12:01:55.218Z,97274.06
2018-03-29T12:04:24.222Z,97271.26
2018-03-29T12:06:53.318Z,97263.67
2018-03-29T12:09:21.550Z,97265.76
2018-03-29T12:11:50.177Z,97260.00
2018-03-29T12:14:18.407Z,97254.72
2018-03-29T12:16:46.649Z,97243.83
2018-03-29T12:19:14.894Z,97248.69
2018-03-29T12:21:43.898Z,97236.44
2018-03-29T12:24:12.146Z,97243.13
2018-03-29T12:26:40.388Z,97243.19
2018-03-29T12:29:08.638Z,97251.42
2018-03-29T12:31:36.882Z,97243.55
2018-03-29T12:34:05.891Z,97248.54
2018-03-29T12:36:34.135Z,97242.80
2018-03-29T12:39:02.378Z,97248.91
2018-03-29T12:41:30.610Z,97249.94
2018-03-29T12:43:59.618Z,97248.01
2018-03-29T12:46:27.866Z,97238.07
2018-03-29T12:48:56.868Z,97249.50
2018-03-29T12:51:25.874Z,97255.27
2018-03-29T12:53:54.119Z,97247.66
2018-03-29T12:56:22.361Z,97237.92
2018-03-29T12:58:50.606Z,97240.90
2018-03-29T13:01:18.837Z,97243.66
2018-03-29T13:03:47.088Z,97233.97
2018-03-29T13:06:15.331Z,97252.44
2018-03-29T13:08:43.578Z,97250.23
2018-03-29T13:11:11.875Z,97241.95
2018-03-29T13:13:40.118Z,97234.19
2018-03-29T13:16:08.361Z,97228.91
2018-03-29T13:18:36.601Z,97226.95
2018-03-29T13:21:04.852Z,97220.80
2018-03-29T13:23:33.870Z,97226.19
2018-03-29T13:26:02.141Z,97228.15
2018-03-29T13:28:31.140Z,97222.39
2018-03-29T13:30:59.376Z,97225.80
2018-03-29T13:33:27.617Z,97226.91
2018-03-29T13:35:55.864Z,97227.11
2018-03-29T13:38:24.097Z,97216.16
2018-03-29T13:40:52.334Z,97228.69
2018-03-29T13:43:20.582Z,97215.31
2018-03-29T13:45:49.577Z,97216.58
2018-03-29T13:48:17.849Z,97212.77
2018-03-29T13:50:46.129Z,97217.59
2018-03-29T13:53:14.366Z,97212.69
2018-03-29T13:55:42.613Z,97208.92
2018-03-29T13:58:10.857Z,97207.56
2018-03-29T14:00:39.108Z,97206.36
2018-03-29T14:03:08.115Z,97204.41
2018-03-29T14:05:37.133Z,97210.56
2018-03-29T14:08:05.377Z,97200.45
2018-03-29T14:10:34.401Z,97191.88
2018-03-29T14:13:02.646Z,97196.53
2018-03-29T14:15:31.645Z,97206.94
2018-03-29T14:18:00.658Z,97197.48
2018-03-29T14:20:28.897Z,97186.08
2018-03-29T14:22:57.136Z,97190.13
2018-03-29T14:25:25.368Z,97186.86
2018-03-29T14:27:53.613Z,97186.71
2018-03-29T14:30:21.848Z,97187.30
2018-03-29T14:32:50.096Z,97182.67
2018-03-29T14:35:18.345Z,97174.64
2018-03-29T14:37:47.357Z,97177.52
2018-03-29T14:40:15.601Z,97172.02
2018-03-29T14:42:43.848Z,97173.63
2018-03-29T14:45:12.084Z,97182.34
2018-03-29T14:47:40.338Z,97175.86
2018-03-29T14:50:09.344Z,97176.23
2018-03-29T14:52:38.356Z,97178.19
2018-03-29T14:55:06.603Z,97182.43
2018-03-29T14:57:34.826Z,97175.86
2018-03-29T15:00:03.177Z,97177.76
2018-03-29T15:02:31.424Z,97182.43
2018-03-29T15:04:59.666Z,97175.16
2018-03-29T15:07:27.921Z,97180.21
2018-03-29T15:09:56.161Z,97183.84
2018-03-29T15:12:25.170Z,97183.33
2018-03-29T15:14:53.421Z,97184.70
2018-03-29T15:17:22.420Z,97182.67
2018-03-29T15:19:51.433Z,97184.77
2018-03-29T15:22:19.687Z,97189.09
2018-03-29T15:24:48.693Z,97182.47
2018-03-29T15:27:16.932Z,97185.87
2018-03-29T15:29:45.185Z,97181.41
2018-03-29T15:32:13.425Z,97176.62
2018-03-29T15:34:41.667Z,97182.22
2018-03-29T15:37:09.911Z,97182.47
2018-03-29T15:39:38.161Z,97188.77
2018-03-29T15:42:06.402Z,97185.21
2018-03-29T15:44:35.436Z,97182.42
2018-03-29T15:47:03.658Z,97179.63
2018-03-29T15:49:31.895Z,97182.58
2018-03-29T15:52:00.147Z,97180.08
2018-03-29T15:54:28.374Z,97182.52
2018-03-29T15:56:56.623Z,97177.44
2018-03-29T15:59:24.864Z,97177.87
2018-03-29T16:01:53.872Z,97189.18
2018-03-29T16:04:22.109Z,97187.72
2018-03-29T16:06:50.348Z,97191.72
2018-03-29T16:09:18.585Z,97186.19
2018-03-29T16:11:46.828Z,97181.16
2018-03-29T16:14:15.069Z,97188.52
2018-03-29T16:16:43.315Z,97177.73
2018-03-29T16:19:11.555Z,97186.94
2018-03-29T16:21:39.798Z,97191.27
2018-03-29T16:24:08.029Z,97188.25
2018-03-29T16:26:37.042Z,97194.11
2018-03-29T16:29:05.280Z,97195.69
2018-03-29T16:31:34.293Z,97194.41
2018-03-29T16:34:02.542Z,97199.20
2018-03-29T16:36:30.790Z,97197.69
2018-03-29T16:38:59.021Z,97197.65
2018-03-29T16:41:27.265Z,97204.03
2018-03-29T16:43:55.580Z,97205.23
2018-03-29T16:46:23.821Z,97203.23
2018-03-29T16:48:52.058Z,97201.71
2018-03-29T16:51:20.297Z,97210.13
2018-03-29T16:53:48.535Z,97217.71
2018-03-29T16:56:16.778Z,97218.63
2018-03-29T16:58:45.017Z,97222.89
2018-03-29T17:01:14.022Z,97222.85
2018-03-29T17:03:42.269Z,97226.70
2018-03-29T17:06:10.500Z,97227.55
2018-03-29T17:08:38.760Z,97233.84
2018-03-29T17:11:06.998Z,97237.60
2018-03-29T17:13:36.010Z,97236.76
2018-03-29T17:16:04.250Z,97236.68
2018-03-29T17:18:32.496Z,97241.58
2018-03-29T17:21:00.737Z,97240.87
2018-03-29T17:23:28.981Z,97253.50
2018-03-29T17:25:57.218Z,97261.06
2018-03-29T17:28:25.457Z,97263.14
2018-03-29T17:30:54.460Z,97263.58
2018-03-29T17:33:22.713Z,97263.31
2018-03-29T17:35:51.713Z,97266.74
2018-03-29T17:38:20.729Z,97268.48
2018-03-29T17:40:48.969Z,97267.73
2018-03-29T17:43:17.985Z,97272.41
2018-03-29T17:45:46.229Z,97268.71
2018-03-29T17:48:14.490Z,97270.04
2018-03-29T17:50:42.704Z,97274.75
2018-03-29T17:53:11.730Z,97282.38
2018-03-29T17:55:39.969Z,97287.45
2018-03-29T17:58:08.970Z,97292.11
2018-03-29T18:00:37.217Z,97290.03
2018-03-29T18:03:05.454Z,97295.50
2018-03-29T18:05:33.698Z,97297.19
2018-03-29T18:08:01.938Z,97292.98
2018-03-29T18:10:30.184Z,97294.67
2018-03-29T18:12:58.494Z,97302.23
2018-03-29T18:15:26.672Z,97305.58
2018-03-29T18:17:54.913Z,97308.50
2018-03-29T18:20:23.163Z,97305.98
2018-03-29T18:22:51.401Z,97309.75
2018-03-29T18:25:20.412Z,97312.67
2018-03-29T18:27:48.646Z,97308.89
2018-03-29T18:30:16.902Z,97313.08
2018-03-29T18:32:45.142Z,97316.02
2018-03-29T18:35:13.380Z,97326.01
2018-03-29T18:37:41.631Z,97325.20
2018-03-29T18:40:09.868Z,97327.66
2018-03-29T18:42:38.106Z,97331.84
2018-03-29T18:45:06.342Z,97331.80
2018-03-29T18:47:34.585Z,97335.52
2018-03-29T18:50:03.612Z,97338.86
2018-03-29T18:52:31.870Z,97342.20
2018-03-29T18:55:00.114Z,97337.17
2018-03-29T18:57:29.132Z,97341.41
2018-03-29T18:59:57.374Z,97339.32
2018-03-29T19:02:25.621Z,97348.46
2018-03-29T19:04:53.858Z,97343.02
2018-03-29T19:07:22.114Z,97343.41
2018-03-29T19:09:51.117Z,97347.16
2018-03-29T19:12:20.207Z,97346.73
2018-03-29T19:14:49.214Z,97352.95
2018-03-29T19:17:17.469Z,97356.34
2018-03-29T19:19:46.478Z,97349.66
2018-03-29T19:22:15.489Z,97352.52
2018-03-29T19:24:43.736Z,97357.50
2018-03-29T19:27:12.746Z,97360.03
2018-03-29T19:29:40.981Z,97363.87
2018-03-29T19:32:09.231Z,97361.47
2018-03-29T19:34:37.473Z,97363.09
2018-03-29T19:37:05.714Z,97370.66
2018-03-29T19:39:33.967Z,97370.63
2018-03-29T19:42:02.205Z,97362.16
2018-03-29T19:44:30.449Z,97363.84
2018-03-29T19:46:59.453Z,97362.64
2018-03-29T19:49:28.468Z,97362.73
2018-03-29T19:51:56.708Z,97363.57
2018-03-29T19:54:25.721Z,97361.89
2018-03-29T19:56:53.968Z,97363.98
2018-03-29T19:59:22.217Z,97352.73
2018-03-29T20:01:50.461Z,97351.84
2018-03-29T20:04:18.708Z,97350.09
2018-03-29T20:06:47.727Z,97354.54
2018-03-29T20:09:15.976Z,97348.14
2018-03-29T20:11:44.977Z,97349.36
2018-03-29T20:14:13.992Z,97350.22
2018-03-29T20:16:42.282Z,97348.12
2018-03-29T20:19:10.522Z,97342.25
2018-03-29T20:21:39.532Z,97350.45
2018-03-29T20:24:07.762Z,97345.23
2018-03-29T20:26:36.020Z,97345.98
2018-03-29T20:29:04.281Z,97349.14
2018-03-29T20:31:32.829Z,97354.09
2018-03-29T20:34:01.072Z,97357.33
2018-03-29T20:36:29.321Z,97357.68
2018-03-29T20:38:57.578Z,97353.83
2018-03-29T20:41:25.824Z,97355.81
2018-03-29T20:43:54.077Z,97362.12
2018-03-29T20:46:22.328Z,97359.68
2018-03-29T20:48:50.584Z,97364.19
2018-03-29T20:51:18.827Z,97368.31
2018-03-29T20:53:47.078Z,97371.56
2018-03-29T20:56:15.337Z,97369.83
2018-03-29T20:58:43.582Z,97365.62
2018-03-29T21:01:11.832Z,97370.70
2018-03-29T21:03:40.077Z,97371.23
2018-03-29T21:06:08.337Z,97375.00
2018-03-29T21:08:36.578Z,97376.22
2018-03-29T21:11:04.822Z,97384.16
2018-03-29T21:13:33.855Z,97387.02
2018-03-29T21:16:02.096Z,97385.73
2018-03-29T21:18:31.113Z,97386.48
2018-03-29T21:20:59.406Z,97388.63
2018-03-29T21:23:27.701Z,97392.88
2018-03-29T21:25:55.898Z,97398.31
2018-03-29T21:28:24.916Z,97399.95
2018-03-29T21:30:53.161Z,97401.75
2018-03-29T21:33:21.450Z,97403.74
2018-03-29T21:35:49.663Z,97395.18
2018-03-29T21:38:17.909Z,97393.20
2018-03-29T21:40:46.161Z,97396.54
2018-03-29T21:43:14.409Z,97390.40
2018-03-29T21:45:42.713Z,97388.88
2018-03-29T21:48:10.959Z,97381.66
2018-03-29T21:50:39.208Z,97385.81
2018-03-29T21:53:07.510Z,97385.11
2018-03-29T21:55:36.581Z,97387.33
2018-03-29T21:58:04.826Z,97387.69
2018-03-29T22:00:33.837Z,97387.20
2018-03-29T22:03:02.081Z,97385.13
2018-03-29T22:05:30.329Z,97391.80
2018-03-29T22:07:58.575Z,97390.17
2018-03-29T22:10:26.825Z,97396.84
2018-03-29T22:12:55.832Z,97399.83
2018-03-29T22:15:24.085Z,97402.67
2018-03-29T22:17:53.097Z,97396.30
2018-03-29T22:20:22.113Z,97396.19
2018-03-29T22:22:50.356Z,97386.46
2018-03-29T22:25:19.388Z,97387.20
2018-03-29T22:27:47.614Z,97387.20
2018-03-29T22:30:15.855Z,97384.64
2018-03-29T22:32:44.109Z,97389.14
2018-03-29T22:35:12.370Z,97386.22
2018-03-29T22:37:40.617Z,97384.74
2018-03-29T22:40:08.862Z,97384.19
2018-03-29T22:42:37.884Z,97383.81
2018-03-29T22:45:06.153Z,97386.77
2018-03-29T22:47:34.409Z,97392.96
2018-03-29T22:50:02.662Z,97388.72
2018-03-29T22:52:30.913Z,97382.80
2018-03-29T22:54:59.152Z,97389.13
2018-03-29T22:57:27.426Z,97391.56
2018-03-29T22:59:55.653Z,97394.03
2018-03-29T23:02:23.908Z,97391.74
2018-03-29T23:04:52.913Z,97399.75
2018-03-29T23:07:21.160Z,97402.34
2018-03-29T23:09:50.184Z,97408.14
2018-03-29T23:12:18.430Z,97409.30
2018-03-29T23:14:47.454Z,97407.13
2018-03-29T23:17:15.696Z,97405.05
2018-03-29T23:19:44.717Z,97400.67
2018-03-29T23:22:12.953Z,97406.02
2018-03-29T23:24:41.208Z,97410.23
2018-03-29T23:27:09.452Z,97405.27
2018-03-29T23:29:37.706Z,97397.80
2018-03-29T23:32:06.710Z,97395.28
2018-03-29T23:34:34.960Z,97395.17
2018-03-29T23:37:03.973Z,97396.42
2018-03-29T23:39:32.225Z,97388.75
2018-03-29T23:42:00.468Z,97390.74
2018-03-29T23:44:28.737Z,97393.63
2018-03-29T23:46:56.982Z,97393.63
2018-03-29T23:49:25.230Z,97389.13
2018-03-29T23:51:53.476Z,97383.73
2018-03-29T23:54:21.722Z,97380.97
2018-03-29T23:56:49.981Z,97381.28
2018-03-29T23:59:18.229Z,97384.61
